Airfield :
LOGIN :

Register | Disclaimer

   EN    FR    IT 

 










Legend :    VFR   Marginal VFR   IFR   Intensive IFR   Very Intensive IFR
Visi :
Ceiling :
>= 8 km
>= 3000ft
5 to 8 km
1000 to 3000 ft
1500m to 5 km
500 to 1000 ft
800 to 1500m
200 to 500 ft
< 800m
< 200 ft
Symbols :   Thunderstorms  Fog  Heavy snow  Heavy precipitations  Wind > 20 kt
SIGMETs :     Misc.  Thunderstorms  Icing  Turbulence  Mountain Waves  Volcanic Ashes







- Airport Elevation : 137 ft


LIPS - Istrana AFB Treviso

CURRENT METAR :
  • 222255Z 05003KT 2500 BR FEW005 BKN025 07/06 Q1018 RMK OVC VIS MIN 2500 WIND THR26 05002KT WIND THR08 06003KT YLO

EXPIRED METARs :
  • 222155Z 07003KT 2500 BR FEW005 BKN025 07/06 Q1018 RMK OVC VIS MIN 2500 WIND THR26 07002KT WIND THR08 07003KT YLO
  • 222055Z 07003KT 3000 BR SCT010 BKN025 07/07 Q1018 RMK OVC VIS MIN 3000 WIND THR26 07003KT WIND THR08 07004KT YLO

TAF TAF LIPS
Valid from the 23 at 00:00 until the 23 at 09:00 UTC


222300Z 2300/2309 VRB03KT 2500 BR BKN020
TEMPO 2300/2306 1200 MIFG BKN010
No reported NOTAMs for that airfield.



MET'MAP, your aeronautical weather chart ! - Copyright ORBIFLY December 2007 - Disclaimer

ORBIFLY MET'MAP TEAM :

Programming & Development : Alexandra Zaïnal
Concept & Development : Baudouin d'Aumeries
Co-Development & Prog : Marc-Olivier Méhu
Technical & hardware support : Manuel Goepfert

Contact : metmap@orbifly.com




SOURCES & CREDITS :

   NOAA